Yuho Maru No.3 — JD2491 — position and weather

sailwx.info

Track history (hours):
 
Tides and Currents Weather Stations Pressure Air Temp Water Temp Dewpoint Dewpoint Depression Visibility Wind Speed Wind Dir Waves Ship Positions

Yuho Maru No.3

Last reported at 2015-Feb-27 23:25 UTC. Time now 2015-Mar-01 10:57 UTC.
Position N 35°31' E 139°57'.

Length 65 m; draft 4.2 m.

Type: Tanker. MMSI: 431000336.

Date/timePositionNaut miles runAvg speedWind from/ knotsBaromVisibWave heightAir tempDewpointWater temp
2015-Feb-27 23:25N 35°31' E 139°57'1011.9
2015-Feb-27 22:34N 35°25' E 139°47'1110.9
2015-Feb-27 21:33N 35°14' E 139°47'1211.7
2015-Feb-27 20:33N 35°03' E 139°41'  
2015-Feb-25 08:03N 35°04' E 139°36'612.2
2015-Feb-25 07:33N 35°07' E 139°42'1110.9
2015-Feb-25 06:33N 35°18' E 139°44'1010.3
2015-Feb-25 05:33N 35°28' E 139°48'12 1.8
2015-Feb-24 23:15N 35°31' E 140°02'4 0.3
2015-Feb-24 07:16N 35°29' E 139°58'2 1.9
2015-Feb-24 06:09N 35°27' E 139°58'4 0.5
2015-Feb-23 22:06N 35°31' E 140°00'7 0.2
2015-Feb-22 06:32N 35°36' E 139°55'1111.5
2015-Feb-22 05:33N 35°26' E 139°48'1110.6
2015-Feb-22 04:33N 35°16' E 139°47'243 9.3
2015-Feb-21 02:33N 34°10' E 135°02'1411.8
2015-Feb-21 01:21N 34°23' E 135°08'911.6
2015-Feb-21 00:33N 34°31' E 135°14'9 8.7
2015-Feb-20 23:33N 34°38' E 135°20'4 4.3
2015-Feb-20 22:33N 34°36' E 135°16'1111.2
2015-Feb-20 21:33N 34°36' E 135°02'  
Track history (hours):
 
Tides and Currents Weather Stations Pressure Air Temp Water Temp Dewpoint Dewpoint Depression Visibility Wind Speed Wind Dir Waves Ship Positions

Yuho Maru No.3

Last reported at 2015-Feb-27 23:25 UTC. Time now 2015-Mar-01 10:57 UTC.
Position N 35°31' E 139°57'.

Length 65 m; draft 4.2 m.

Type: Tanker. MMSI: 431000336.

Date/timePositionNaut miles runAvg speedWind from/ knotsBaromVisibWave heightAir tempDewpointWater temp
2015-Feb-27 23:25N 35°31' E 139°57'1011.9
2015-Feb-27 22:34N 35°25' E 139°47'1110.9
2015-Feb-27 21:33N 35°14' E 139°47'1211.7
2015-Feb-27 20:33N 35°03' E 139°41'  
2015-Feb-25 08:03N 35°04' E 139°36'612.2
2015-Feb-25 07:33N 35°07' E 139°42'1110.9
2015-Feb-25 06:33N 35°18' E 139°44'1010.3
2015-Feb-25 05:33N 35°28' E 139°48'12 1.8
2015-Feb-24 23:15N 35°31' E 140°02'4 0.3
2015-Feb-24 07:16N 35°29' E 139°58'2 1.9
2015-Feb-24 06:09N 35°27' E 139°58'4 0.5
2015-Feb-23 22:06N 35°31' E 140°00'7 0.2
2015-Feb-22 06:32N 35°36' E 139°55'1111.5
2015-Feb-22 05:33N 35°26' E 139°48'1110.6
2015-Feb-22 04:33N 35°16' E 139°47'243 9.3
2015-Feb-21 02:33N 34°10' E 135°02'1411.8
2015-Feb-21 01:21N 34°23' E 135°08'911.6
2015-Feb-21 00:33N 34°31' E 135°14'9 8.7
2015-Feb-20 23:33N 34°38' E 135°20'4 4.3
2015-Feb-20 22:33N 34°36' E 135°16'1111.2
2015-Feb-20 21:33N 34°36' E 135°02'  

Dump ship's entire track history